This is the latest recevied weather packets stored in our database for station/object WMSA. If no packets are shown the sender has not sent any weather packets the latest 1 day(s).
| Time | Temp. | Humidity | Pressure | Rain* | Wind** | Luminosity | Snow |
|---|---|---|---|---|---|---|---|
| 1836274134 | 30.56° C | 66% | 1012 hPa | - | 2.24 m/s, 230° | - | - |
| 1778062197 | 26.67° C | 88% | 1006 hPa | - | 0.89 m/s, 0° | - | - |
| 1778060990 | 26.67° C | 88% | 1006 hPa | - | 1.34 m/s, 0° | - | - |
| 1778058597 | 25.56° C | 94% | 1006 hPa | - | 0.89 m/s, 0° | - | - |
| 1778056190 | 25.56° C | 94% | 1006 hPa | - | 2.24 m/s, 40° | - | - |
| 1778054997 | 26.67° C | 94% | 1006 hPa | - | 2.68 m/s, 40° | - | - |
| 1778053790 | 30° C | 79% | 1006 hPa | - | 1.34 m/s, 270° | - | - |
| 1778051403 | 31.67° C | 70% | 1005 hPa | - | 4.92 m/s, 230° | - | - |
| 1778047797 | 32.78° C | 66% | 1007 hPa | - | 3.58 m/s, 230° | - | - |
| 1778044196 | 32.78° C | 62% | 1008 hPa | - | 1.79 m/s, 0° | - | - |
| 1778040597 | 31.67° C | 66% | 1009 hPa | - | 1.79 m/s, 190° | - | - |
| 1778037001 | 30.56° C | 70% | 1009 hPa | - | 1.34 m/s, 0° | - | - |
| 1778033396 | 30° C | 74% | 1009 hPa | - | 0 m/s | - | - |
| 1778029798 | 27.78° C | 83% | 1009 hPa | - | 0.89 m/s, 0° | - | - |
| 1778026197 | 26.67° C | 88% | 1008 hPa | - | 0 m/s | - | - |
| 1778022596 | 26.67° C | 88% | 1007 hPa | - | 0.89 m/s, 0° | - | - |
| 1778019002 | 25.56° C | 94% | 1007 hPa | - | 0.89 m/s, 0° | - | - |
| 1778015397 | 25.56° C | 94% | 1007 hPa | - | 0 m/s | - | - |
| 1778011796 | 26.67° C | 94% | 1007 hPa | - | 0 m/s | - | - |
| 1778008196 | 26.67° C | 94% | 1008 hPa | - | 0 m/s | - | - |
| 1778004601 | 26.67° C | 94% | 1008 hPa | - | 0 m/s | - | - |
| 1778000996 | 26.67° C | 94% | 1008 hPa | - | 0 m/s | - | - |
| 1777997397 | 26.67° C | 94% | 1008 hPa | - | 0.45 m/s, 0° | - | - |
| 1777994996 | 26.67° C | 94% | 1008 hPa | - | 0.45 m/s, 0° | - | - |
| 1777994410 | 25° C | 94% | 1010.4 hPa | - | 0.45 m/s, 51° | - | - |
* Rain since midnight (hover to see other rain measurements)
** Current wind speed in m/s (hover to see current wind gust speed)